Time;durP1;ratioP1;P1;durP2;ratioP2;P2;SDS_P1;SDS_P2;PMS_P1;PMS_P2;Temp;Humidity;BMP_temperature;BMP_pressure;BME280_temperature;BME280_humidity;BME280_pressure;Samples;Min_cycle;Max_cycle;Signal;HPM_P1;HPM_P2
2022/11/11 00:00:02;;;;;;;53.90;29.57;;;;;;;9.30;72.86;101603.44;123925;1105;104320;-74
2022/11/11 00:03:12;;;;;;;53.37;28.47;;;;;;;9.25;73.32;101606.59;123868;1105;102742;-74
2022/11/11 00:06:04;;;;;;;58.83;34.10;;;;;;;9.09;73.08;101608.30;123943;1105;104236;-74
2022/11/11 00:08:54;;;;;;;60.83;34.47;;;;;;;8.93;72.81;101609.11;123932;1105;104182;-74
2022/11/11 00:11:45;;;;;;;64.23;35.13;;;;;;;8.85;72.84;101610.37;123974;1105;104312;-74
2022/11/11 00:14:35;;;;;;;64.83;35.97;;;;;;;8.78;72.90;101610.80;123946;1105;104179;-74
2022/11/11 00:26:48;;;;;;;82.07;42.63;;;;;;;8.36;73.66;101621.28;123992;1105;104341;-74
2022/11/11 00:29:38;;;;;;;80.17;43.40;;;;;;;8.27;73.73;101629.48;123949;1105;104255;-74
2022/11/11 00:32:29;;;;;;;72.23;40.50;;;;;;;8.26;73.91;101624.16;123886;1105;104268;-74
2022/11/11 00:38:46;;;;;;;77.03;43.70;;;;;;;8.20;74.32;101629.89;123881;1105;104179;-73
2022/11/11 00:41:36;;;;;;;85.03;43.83;;;;;;;8.17;74.42;101628.80;123944;1105;104202;-74
2022/11/11 00:44:26;;;;;;;83.33;44.67;;;;;;;8.16;74.89;101630.48;123962;1103;104191;-74
2022/11/11 00:53:36;;;;;;;95.30;49.63;;;;;;;8.15;75.18;101630.39;123921;1105;104268;-74
2022/11/11 00:56:26;;;;;;;87.33;47.73;;;;;;;8.15;75.38;101630.39;123939;1105;102838;-73
2022/11/11 00:59:16;;;;;;;87.33;47.57;;;;;;;8.15;75.71;101628.70;123957;1105;104179;-74
2022/11/11 01:02:06;;;;;;;85.67;48.17;;;;;;;8.14;75.87;101633.83;123883;1105;104066;-74
2022/11/11 01:04:56;;;;;;;90.20;48.40;;;;;;;8.11;75.75;101634.53;123975;1105;102841;-74
2022/11/11 01:07:48;;;;;;;89.70;48.40;;;;;;;8.11;76.07;101629.30;123913;1105;102870;-74
2022/11/11 01:10:40;;;;;;;90.17;48.90;;;;;;;8.09;75.71;101637.05;123934;1105;104166;-74
2022/11/11 01:13:32;;;;;;;86.40;47.60;;;;;;;8.09;75.98;101638.77;123913;1102;104279;-73
2022/11/11 01:16:24;;;;;;;92.83;50.23;;;;;;;8.08;75.89;101631.72;123891;1102;104270;-74
2022/11/11 01:19:14;;;;;;;90.60;47.37;;;;;;;8.09;76.40;101637.05;123932;1102;104337;-74
2022/11/11 01:22:03;;;;;;;86.83;46.63;;;;;;;8.10;76.62;101635.33;123958;1105;102825;-73
2022/11/11 01:24:53;;;;;;;87.20;46.50;;;;;;;8.10;76.23;101643.16;123949;1105;104173;-73
2022/11/11 01:27:43;;;;;;;86.33;47.60;;;;;;;8.15;76.62;101640.84;123941;1105;104397;-73
2022/11/11 01:30:34;;;;;;;81.20;44.73;;;;;;;8.17;76.91;101640.15;123930;1102;104166;-74
2022/11/11 01:33:24;;;;;;;85.57;46.73;;;;;;;8.17;77.36;101639.25;123914;1102;104303;-74
2022/11/11 01:36:15;;;;;;;85.33;45.40;;;;;;;8.16;76.45;101638.33;123935;1102;104230;-75
2022/11/11 01:39:05;;;;;;;80.40;45.83;;;;;;;8.17;76.60;101639.25;123926;1102;104214;-74
2022/11/11 01:41:55;;;;;;;83.03;47.67;;;;;;;8.17;76.85;101637.53;123903;1105;117866;-74
2022/11/11 01:44:50;;;;;;;82.00;45.70;;;;;;;8.15;77.40;101636.55;123915;1105;102780;-74
2022/11/11 01:50:48;;;;;;;83.60;45.63;;;;;;;8.08;77.97;101639.56;123872;1105;104204;-74
2022/11/11 01:53:37;;;;;;;89.05;47.20;;;;;;;8.04;78.07;101640.16;123921;1105;104967;-74
2022/11/11 01:56:28;;;;;;;84.70;46.07;;;;;;;7.99;78.39;101641.58;123970;1105;104201;-74
2022/11/11 01:59:19;;;;;;;80.67;44.47;;;;;;;7.95;77.99;101637.88;123923;1105;104660;-74
2022/11/11 02:02:16;;;;;;;82.37;45.37;;;;;;;7.92;78.18;101651.64;124090;1105;102278;-74
2022/11/11 02:08:31;;;;;;;81.17;44.50;;;;;;;7.89;79.42;101655.77;124356;1105;102319;-75
2022/11/11 02:14:38;;;;;;;80.93;45.50;;;;;;;7.89;78.91;101663.62;124599;1105;104189;-75
2022/11/11 02:17:32;;;;;;;78.27;43.00;;;;;;;7.89;79.52;101661.89;124700;1105;103652;-74
2022/11/11 02:20:29;;;;;;;79.00;44.50;;;;;;;7.92;79.41;101661.20;124601;1105;104223;-74
2022/11/11 02:23:24;;;;;;;85.53;45.77;;;;;;;7.96;79.58;101654.45;126255;1105;101758;-75
2022/11/11 02:26:17;;;;;;;81.50;46.77;;;;;;;7.99;79.62;101658.16;124512;1103;102275;-74
2022/11/11 02:29:12;;;;;;;80.40;44.83;;;;;;;8.02;79.96;101658.36;124553;1105;104227;-74
2022/11/11 02:32:02;;;;;;;73.53;42.27;;;;;;;8.07;79.93;101664.81;124634;1105;104323;-74
2022/11/11 02:34:52;;;;;;;75.67;40.77;;;;;;;8.10;80.41;101662.39;124477;1105;101909;-74
2022/11/11 02:37:51;;;;;;;73.83;40.33;;;;;;;8.14;80.14;101666.09;124304;1102;103465;-74
2022/11/11 02:41:55;;;;;;;70.97;40.63;;;;;;;8.17;80.68;101668.91;124379;1102;102447;-74
2022/11/11 02:43:53;;;;;;;70.23;40.53;;;;;;;8.20;81.67;101671.72;124203;1105;107073;-74
2022/11/11 02:46:43;;;;;;;68.40;40.00;;;;;;;8.24;81.14;101672.81;125250;1104;104188;-74
2022/11/11 02:49:33;;;;;;;73.87;39.00;;;;;;;8.27;82.16;101673.94;124155;1105;104252;-75
2022/11/11 02:52:23;;;;;;;70.97;39.90;;;;;;;8.29;82.46;101684.49;124191;1105;104201;-75
2022/11/11 02:55:13;;;;;;;71.13;40.13;;;;;;;8.28;82.16;101678.34;124183;1105;104195;-75
2022/11/11 02:58:03;;;;;;;76.90;39.17;;;;;;;8.28;82.05;101686.18;123925;1103;104064;-75
2022/11/11 03:00:53;;;;;;;71.53;40.40;;;;;;;8.31;82.11;101687.20;123962;1102;104169;-74
2022/11/11 03:03:43;;;;;;;72.90;40.27;;;;;;;8.31;81.86;101692.44;124034;1102;102252;-74
2022/11/11 03:06:33;;;;;;;70.80;39.90;;;;;;;8.29;83.04;101692.34;124056;1105;104110;-74
2022/11/11 03:09:23;;;;;;;72.53;40.07;;;;;;;8.29;82.73;101689.72;125389;1104;104178;-75
2022/11/11 03:12:14;;;;;;;68.90;39.97;;;;;;;8.32;82.87;101689.92;124376;1105;104267;-74
2022/11/11 03:15:18;;;;;;;70.17;38.50;;;;;;;8.34;82.48;101690.02;124584;1105;102087;-75
2022/11/11 03:21:28;;;;;;;68.30;36.67;;;;;;;8.36;83.01;101693.63;125453;1105;101867;-75
2022/11/11 03:28:27;;;;;;;74.77;40.27;;;;;;;8.36;83.59;101691.91;124810;1105;102806;-75
2022/11/11 03:38:44;;;;;;;66.73;37.73;;;;;;;8.41;83.94;101707.89;124680;1105;102888;-74
2022/11/11 03:42:04;;;;;;;74.83;40.87;;;;;;;8.40;83.80;101712.22;124843;1105;104419;-74
2022/11/11 03:48:22;;;;;;;70.10;40.50;;;;;;;8.45;84.97;101716.06;125550;1104;104252;-75
2022/11/11 03:58:48;;;;;;;70.23;38.63;;;;;;;8.55;85.05;101717.55;126752;1104;103666;-75
2022/11/11 04:11:10;;;;;;;63.80;35.23;;;;;;;8.64;85.23;101720.73;124280;1105;104108;-75
2022/11/11 04:17:14;;;;;;;56.73;32.40;;;;;;;8.69;85.06;101720.14;123987;1105;104185;-75
2022/11/11 04:23:13;;;;;;;55.10;31.40;;;;;;;8.73;86.06;101717.81;123956;1105;104188;-75
2022/11/11 04:26:03;;;;;;;59.23;34.47;;;;;;;8.74;85.67;101721.32;123976;1105;104210;-75
2022/11/11 04:35:20;;;;;;;56.30;31.90;;;;;;;8.78;86.68;101725.95;123957;1105;104185;-75
2022/11/11 04:41:18;;;;;;;64.97;37.53;;;;;;;8.82;86.62;101733.20;123949;1102;104277;-75
2022/11/11 04:47:18;;;;;;;61.47;35.30;;;;;;;8.84;87.15;101743.77;123935;1105;107071;-76
2022/11/11 04:50:09;;;;;;;56.10;33.20;;;;;;;8.85;86.35;101742.93;123966;1103;104099;-75
2022/11/11 04:53:00;;;;;;;62.47;35.87;;;;;;;8.86;87.15;101756.12;123939;1105;104246;-75
2022/11/11 05:05:09;;;;;;;47.67;26.87;;;;;;;8.91;87.33;101756.41;123962;1102;104266;-75
2022/11/11 05:11:08;;;;;;;51.57;29.47;;;;;;;8.92;87.04;101766.97;123993;1105;104233;-76
2022/11/11 05:26:40;;;;;;;52.77;29.40;;;;;;;8.99;87.80;101779.65;123802;1105;104556;-75
2022/11/11 05:29:30;;;;;;;48.07;25.93;;;;;;;9.01;87.75;101777.13;123995;1105;104258;-75
2022/11/11 05:32:24;;;;;;;50.40;27.73;;;;;;;8.99;87.48;101784.88;124041;1105;104245;-75
2022/11/11 05:35:14;;;;;;;56.80;30.90;;;;;;;9.05;88.15;101786.06;124025;1105;104191;-75
2022/11/11 05:41:15;;;;;;;53.13;28.73;;;;;;;9.11;88.46;101789.06;123948;1104;104227;-75
2022/11/11 05:44:07;;;;;;;48.87;25.50;;;;;;;9.15;88.58;101801.55;123998;1105;102953;-75
2022/11/11 05:46:57;;;;;;;51.97;27.97;;;;;;;9.16;87.84;101798.10;124020;1106;103082;-76
2022/11/11 05:49:48;;;;;;;47.37;26.40;;;;;;;9.19;87.90;101798.30;123940;1106;104242;-75
2022/11/11 05:52:39;;;;;;;50.90;24.97;;;;;;;9.22;89.11;101806.34;123923;1104;104230;-76
2022/11/11 05:55:29;;;;;;;46.50;25.57;;;;;;;9.21;88.92;101807.17;123967;1105;102835;-76
2022/11/11 05:58:20;;;;;;;46.27;24.73;;;;;;;9.22;89.26;101808.06;124038;1102;104275;-75
2022/11/11 06:01:10;;;;;;;42.37;24.30;;;;;;;9.20;89.59;101804.46;123898;1102;103334;-76
2022/11/11 06:04:00;;;;;;;45.17;24.93;;;;;;;9.19;89.99;101803.53;124048;1102;104173;-75
2022/11/11 06:06:50;;;;;;;45.45;24.55;;;;;;;9.14;89.63;101804.97;123970;1102;104179;-75
2022/11/11 06:09:39;;;;;;;44.90;23.80;;;;;;;9.14;89.85;101811.10;123999;1105;104249;-75
2022/11/11 06:13:00;;;;;;;42.73;23.30;;;;;;;9.23;90.85;101829.11;123945;1103;104284;-75
2022/11/11 06:15:40;;;;;;;44.23;24.20;;;;;;;9.24;91.00;101828.32;123940;1105;104179;-75
2022/11/11 06:18:30;;;;;;;41.73;23.97;;;;;;;9.25;90.41;101830.11;123922;1105;102873;-75
2022/11/11 06:21:19;;;;;;;47.87;27.37;;;;;;;9.29;91.29;101824.26;123909;1105;103684;-75
2022/11/11 06:24:11;;;;;;;44.23;23.70;;;;;;;9.34;91.06;101837.64;123974;1105;103677;-75
2022/11/11 06:27:03;;;;;;;43.00;22.50;;;;;;;9.38;90.48;101841.34;123942;1105;104332;-74
2022/11/11 06:29:52;;;;;;;40.97;23.27;;;;;;;9.42;91.25;101835.50;123944;1105;107099;-73
2022/11/11 06:32:42;;;;;;;41.67;22.50;;;;;;;9.48;90.58;101838.50;123899;1106;102528;-74
2022/11/11 06:35:32;;;;;;;42.30;23.17;;;;;;;9.49;90.66;101841.21;123878;1105;102531;-73
2022/11/11 06:38:22;;;;;;;49.90;27.10;;;;;;;9.55;90.07;101845.91;123983;1106;105554;-74
2022/11/11 06:41:14;;;;;;;42.97;23.93;;;;;;;9.60;90.97;101846.19;124025;1105;104213;-74
2022/11/11 06:44:04;;;;;;;39.53;22.63;;;;;;;9.61;91.20;101840.14;123920;1105;104355;-74
2022/11/11 06:46:57;;;;;;;41.07;22.37;;;;;;;9.62;90.84;101845.48;123935;1105;104267;-74
2022/11/11 06:49:47;;;;;;;40.97;23.50;;;;;;;9.63;90.67;101839.44;125066;1105;102370;-75
2022/11/11 06:52:38;;;;;;;44.43;22.90;;;;;;;9.65;91.35;101837.80;123941;1105;104647;-74
2022/11/11 06:55:28;;;;;;;38.27;21.33;;;;;;;9.66;91.85;101843.94;123983;1105;104186;-74
2022/11/11 06:58:19;;;;;;;45.20;25.33;;;;;;;9.68;90.90;101837.99;123898;1105;104405;-75
2022/11/11 07:01:13;;;;;;;43.77;23.53;;;;;;;9.74;91.55;101853.20;123960;1105;104242;-75
2022/11/11 07:04:04;;;;;;;50.05;25.70;;;;;;;9.75;91.30;101854.09;123925;1105;102486;-74
2022/11/11 07:06:53;;;;;;;50.03;25.87;;;;;;;9.79;90.87;101856.99;124029;1105;104172;-75
2022/11/11 07:09:43;;;;;;;46.33;24.83;;;;;;;9.83;91.84;101858.07;123962;1106;102581;-75
2022/11/11 07:12:34;;;;;;;45.47;25.40;;;;;;;9.85;91.73;101857.36;123951;1105;104319;-75
2022/11/11 07:15:25;;;;;;;41.23;22.27;;;;;;;9.89;91.47;101863.69;123969;1105;104169;-74
2022/11/11 07:18:15;;;;;;;48.03;24.23;;;;;;;9.91;91.64;101859.46;123945;1105;104176;-75
2022/11/11 07:21:18;;;;;;;;;;;;;;;9.93;92.33;101870.05;125377;1104;102479;-74
2022/11/11 07:24:09;;;;;;;43.70;23.27;;;;;;;9.92;92.36;101861.25;124115;1105;103186;-75
2022/11/11 07:27:00;;;;;;;44.80;24.87;;;;;;;9.93;91.37;101865.69;124021;1105;101955;-76
2022/11/11 07:29:57;;;;;;;49.30;25.23;;;;;;;9.96;91.90;101870.23;124090;1105;104240;-75
2022/11/11 07:32:51;;;;;;;44.10;24.37;;;;;;;9.98;92.10;101869.48;124726;1103;102297;-75
2022/11/11 07:35:43;;;;;;;46.35;25.00;;;;;;;10.01;92.46;101880.16;124307;1105;104223;-76
2022/11/11 07:38:39;;;;;;;46.37;24.13;;;;;;;10.02;92.29;101881.98;124145;1105;102034;-75
2022/11/11 07:41:31;;;;;;;47.23;24.27;;;;;;;10.02;92.62;101879.36;123922;1105;104211;-75
2022/11/11 07:44:22;;;;;;;44.43;23.70;;;;;;;10.04;91.90;101877.72;123916;1105;102837;-76
2022/11/11 07:47:16;;;;;;;40.57;22.33;;;;;;;10.05;91.89;101879.54;123986;1105;104201;-75
2022/11/11 07:50:08;;;;;;;47.87;26.10;;;;;;;10.05;91.94;101878.61;124919;1105;102819;-76
2022/11/11 07:52:57;;;;;;;43.73;23.07;;;;;;;10.03;93.04;101889.01;124093;1105;104322;-75
2022/11/11 07:55:50;;;;;;;41.50;22.47;;;;;;;10.04;93.26;101884.70;125298;1104;102342;-76
2022/11/11 07:58:45;;;;;;;46.57;24.53;;;;;;;10.03;93.37;101883.77;124693;1105;104169;-75
2022/11/11 08:01:34;;;;;;;;;;;;;;;10.03;93.93;101883.77;123960;1105;102939;-75
2022/11/11 08:07:36;;;;;;;41.27;23.17;;;;;;;10.01;92.81;101900.25;125053;1105;102039;-75
2022/11/11 08:10:29;;;;;;;41.00;22.17;;;;;;;10.01;93.33;101901.14;123894;1104;104297;-75
2022/11/11 08:13:40;;;;;;;37.17;20.57;;;;;;;10.03;93.23;101899.50;125168;1105;104182;-75
2022/11/11 08:16:43;;;;;;;36.67;19.30;;;;;;;10.03;93.41;101903.85;124035;1105;104245;-76
2022/11/11 08:19:34;;;;;;;38.50;21.87;;;;;;;10.04;93.86;101911.81;124026;1105;104172;-76
2022/11/11 08:22:26;;;;;;;43.70;23.43;;;;;;;10.06;93.47;101918.05;124067;1105;104473;-75
2022/11/11 08:25:21;;;;;;;43.90;24.37;;;;;;;10.04;93.89;101914.44;124069;1104;104232;-76
2022/11/11 08:28:10;;;;;;;;;;;;;;;10.10;93.50;101920.86;124040;1105;101836;-75
2022/11/11 08:31:08;;;;;;;45.87;25.40;;;;;;;10.18;93.76;101922.25;124099;1105;101986;-75
2022/11/11 08:34:00;;;;;;;43.07;24.37;;;;;;;10.22;94.06;101916.34;123987;1105;102168;-75
2022/11/11 08:36:49;;;;;;;47.17;26.30;;;;;;;10.24;93.74;101922.61;123949;1104;102428;-75
2022/11/11 08:39:40;;;;;;;46.23;25.50;;;;;;;10.26;93.60;101923.59;125275;1105;102055;-76
2022/11/11 08:42:30;;;;;;;45.90;25.70;;;;;;;10.30;94.05;101925.60;123999;1105;102102;-75
2022/11/11 08:45:23;;;;;;;50.93;27.27;;;;;;;10.33;93.28;101919.64;124039;1106;104220;-76
2022/11/11 08:48:13;;;;;;;48.57;26.17;;;;;;;10.38;93.28;101923.47;124044;1105;103164;-75
2022/11/11 08:51:06;;;;;;;47.37;26.53;;;;;;;10.40;94.15;101929.70;123945;1105;104226;-75
2022/11/11 08:53:57;;;;;;;49.53;27.97;;;;;;;10.41;93.51;101928.91;124003;1103;103350;-75
2022/11/11 08:56:47;;;;;;;49.20;27.57;;;;;;;10.39;93.84;101926.19;124073;1105;103491;-74
2022/11/11 08:59:39;;;;;;;51.77;28.90;;;;;;;10.39;94.50;101926.19;124033;1105;104185;-75
2022/11/11 09:02:33;;;;;;;50.60;27.63;;;;;;;10.42;94.10;101931.61;124109;1105;104200;-75
2022/11/11 09:05:36;;;;;;;54.20;30.33;;;;;;;10.43;94.05;101927.27;125476;1105;103651;-75
2022/11/11 09:08:34;;;;;;;54.17;29.67;;;;;;;10.55;93.73;101937.55;124083;1105;104395;-77
2022/11/11 09:11:25;;;;;;;56.47;31.23;;;;;;;10.56;93.70;101921.89;124017;1105;104184;-75
2022/11/11 09:14:15;;;;;;;51.30;28.07;;;;;;;10.57;93.80;101923.72;124035;1105;104251;-75
2022/11/11 09:17:07;;;;;;;54.23;29.47;;;;;;;10.57;93.61;101917.58;124046;1105;104341;-75
2022/11/11 09:19:58;;;;;;;54.67;29.43;;;;;;;10.57;93.38;101918.47;124057;1105;104239;-75
2022/11/11 09:22:51;;;;;;;48.87;27.33;;;;;;;10.58;94.54;101915.04;123987;1105;102845;-76
2022/11/11 09:25:42;;;;;;;52.17;28.83;;;;;;;10.60;93.77;101917.75;124047;1105;104195;-75
2022/11/11 09:28:33;;;;;;;46.90;26.53;;;;;;;10.63;93.70;101915.31;124014;1105;104172;-74
2022/11/11 09:31:29;;;;;;;48.63;27.73;;;;;;;10.69;94.03;101919.98;124041;1105;103370;-74
2022/11/11 09:34:23;;;;;;;51.37;28.77;;;;;;;10.75;93.05;101915.09;124988;1105;102819;-74
2022/11/11 09:37:14;;;;;;;49.30;26.83;;;;;;;10.89;93.84;101918.51;124033;1105;104050;-75
2022/11/11 09:40:07;;;;;;;47.10;26.77;;;;;;;10.96;93.18;101916.32;124087;1105;104219;-75
2022/11/11 09:43:10;;;;;;;49.90;27.55;;;;;;;11.06;92.72;101909.86;124123;1105;104267;-74
2022/11/11 09:46:15;;;;;;;44.27;24.00;;;;;;;11.14;92.99;101918.17;125422;1105;102312;-75
2022/11/11 09:49:27;;;;;;;46.37;25.33;;;;;;;11.23;92.38;101904.66;124195;1105;103084;-75
2022/11/11 09:52:21;;;;;;;47.37;25.43;;;;;;;11.35;92.42;101907.06;124002;1105;104221;-75
2022/11/11 09:55:20;;;;;;;45.00;25.23;;;;;;;11.46;92.34;101903.30;124206;1102;104198;-75
2022/11/11 09:58:19;;;;;;;43.73;24.43;;;;;;;11.55;92.33;101895.02;124249;1102;104201;-75
2022/11/11 10:01:15;;;;;;;44.43;24.57;;;;;;;11.61;91.92;101897.94;124253;1102;104255;-75
2022/11/11 10:04:18;;;;;;;41.73;22.50;;;;;;;11.62;91.45;101894.50;124236;1102;103636;-75
2022/11/11 10:07:14;;;;;;;41.73;22.53;;;;;;;11.69;91.64;101907.17;124052;1102;107015;-75
2022/11/11 10:10:15;;;;;;;44.13;24.60;;;;;;;11.69;91.55;101888.77;124170;1102;102566;-75
2022/11/11 10:13:17;;;;;;;42.60;22.87;;;;;;;11.73;91.30;101882.82;125275;1101;101816;-76
2022/11/11 10:16:18;;;;;;;40.87;21.90;;;;;;;11.73;90.98;101888.08;124269;1102;104162;-75
2022/11/11 10:19:23;;;;;;;42.53;22.70;;;;;;;11.74;91.12;101882.02;124348;1102;104249;-75
2022/11/11 10:22:25;;;;;;;44.33;22.93;;;;;;;11.79;91.53;101880.52;124252;1102;105066;-75
2022/11/11 10:25:32;;;;;;;37.40;20.95;;;;;;;11.87;90.99;101873.03;124197;1102;104278;-75
2022/11/11 10:28:25;;;;;;;37.77;21.00;;;;;;;12.01;90.26;101869.45;124096;1102;102822;-75
2022/11/11 10:31:19;;;;;;;39.00;20.37;;;;;;;12.16;90.59;101871.95;124107;1102;104268;-75
2022/11/11 10:34:14;;;;;;;33.83;20.30;;;;;;;12.29;90.62;101865.57;124167;1102;103116;-77
2022/11/11 10:37:33;;;;;;;36.10;19.50;;;;;;;12.35;89.86;101875.52;124191;1102;104166;-76
2022/11/11 10:40:29;;;;;;;33.63;17.70;;;;;;;12.36;89.30;101877.34;124260;1102;102591;-77
2022/11/11 10:43:28;;;;;;;33.83;18.20;;;;;;;12.28;88.89;101871.69;125820;1101;103333;-78
2022/11/11 10:46:32;;;;;;;32.83;17.30;;;;;;;12.21;88.62;101870.45;125723;1101;104242;-76
2022/11/11 10:49:48;;;;;;;33.67;18.10;;;;;;;12.20;88.77;101867.73;125836;1102;102581;-76
2022/11/11 10:52:59;;;;;;;34.50;17.43;;;;;;;12.33;89.10;101872.81;124789;1101;104176;-75
2022/11/11 10:56:09;;;;;;;32.83;17.40;;;;;;;12.43;88.16;101868.00;124210;1101;104316;-75
2022/11/11 10:59:10;;;;;;;32.80;16.53;;;;;;;12.43;88.00;101865.38;124878;1102;101794;-76
2022/11/11 11:02:09;;;;;;;32.77;16.63;;;;;;;12.40;87.63;101863.48;124262;1102;104169;-75
2022/11/11 11:05:05;;;;;;;28.23;15.57;;;;;;;12.38;87.60;101859.88;124194;1102;104348;-75
2022/11/11 11:08:09;;;;;;;29.67;15.47;;;;;;;12.44;87.51;101860.19;124092;1102;102838;-76
2022/11/11 11:11:09;;;;;;;28.03;14.53;;;;;;;12.48;87.56;101856.89;124080;1102;102876;-76
2022/11/11 11:14:04;;;;;;;29.20;15.83;;;;;;;12.52;86.28;101852.67;124119;1102;104166;-75
2022/11/11 11:16:56;;;;;;;29.75;15.83;;;;;;;12.54;86.58;101851.00;124055;1102;104255;-75
2022/11/11 11:20:23;;;;;;;29.80;15.70;;;;;;;12.53;86.14;101862.38;124180;1102;104230;-75
2022/11/11 11:23:34;;;;;;;30.27;15.97;;;;;;;12.48;85.77;101855.97;124150;1102;104172;-75
2022/11/11 11:26:24;;;;;;;31.30;15.93;;;;;;;12.47;86.42;101856.81;124138;1102;104309;-76
2022/11/11 11:29:23;;;;;;;28.77;14.03;;;;;;;12.43;85.40;101866.27;123975;1102;104249;-76
2022/11/11 11:32:20;;;;;;;27.77;14.37;;;;;;;12.42;85.13;101872.38;124013;1102;102927;-75
2022/11/11 11:35:31;;;;;;;25.47;13.57;;;;;;;12.41;85.26;101865.30;123977;1102;104169;-76
2022/11/11 11:38:39;;;;;;;27.33;13.83;;;;;;;12.38;83.84;101860.77;124036;1102;102844;-76
2022/11/11 11:41:43;;;;;;;27.30;14.13;;;;;;;12.38;83.14;101865.14;124130;1102;104335;-75
2022/11/11 11:44:37;;;;;;;30.67;14.23;;;;;;;12.33;83.46;101864.91;124146;1102;102844;-76
2022/11/11 11:47:43;;;;;;;25.95;14.63;;;;;;;12.33;83.03;101872.81;124122;1102;102652;-76
2022/11/11 11:50:42;;;;;;;27.87;13.43;;;;;;;12.29;82.86;101864.67;123936;1102;104281;-76
2022/11/11 11:53:53;;;;;;;26.27;13.70;;;;;;;12.26;82.89;101870.68;123916;1102;102837;-76
2022/11/11 11:56:50;;;;;;;29.17;14.63;;;;;;;12.21;83.51;101859.92;123976;1102;102934;-75
2022/11/11 11:59:47;;;;;;;25.60;13.67;;;;;;;12.17;82.83;101865.88;124256;1102;110832;-76
2022/11/11 12:03:01;;;;;;;25.97;13.67;;;;;;;12.15;82.54;101869.23;124266;1102;102274;-75
2022/11/11 12:05:59;;;;;;;27.23;14.47;;;;;;;12.13;83.16;101877.05;124189;1102;102947;-75
2022/11/11 12:09:05;;;;;;;29.40;15.50;;;;;;;12.13;83.13;101868.27;124017;1102;104181;-75
2022/11/11 12:12:06;;;;;;;28.07;14.77;;;;;;;12.11;82.88;101868.19;123985;1102;102911;-73
2022/11/11 12:15:04;;;;;;;25.60;14.60;;;;;;;12.09;83.08;101872.48;123971;1102;104629;-75
2022/11/11 12:18:14;;;;;;;28.43;15.07;;;;;;;12.10;83.21;101862.84;123987;1102;103560;-74
2022/11/11 12:21:12;;;;;;;25.93;13.83;;;;;;;12.12;83.42;101863.81;124126;1102;104680;-75
2022/11/11 12:24:15;;;;;;;25.77;12.60;;;;;;;12.12;82.98;101862.08;124127;1102;104214;-75
2022/11/11 12:27:14;;;;;;;26.90;13.75;;;;;;;12.07;82.61;101867.95;124164;1102;102874;-74
2022/11/11 12:30:17;;;;;;;26.83;13.83;;;;;;;12.04;82.81;101869.61;124005;1102;104204;-75
2022/11/11 12:33:36;;;;;;;27.03;13.77;;;;;;;12.01;82.45;101864.19;124063;1102;104188;-74
2022/11/11 12:36:35;;;;;;;25.90;12.93;;;;;;;11.98;82.24;101868.37;124023;1102;103316;-75
2022/11/11 12:39:46;;;;;;;24.77;12.83;;;;;;;11.99;82.51;101865.81;124112;1102;104248;-76
2022/11/11 12:42:53;;;;;;;27.60;13.00;;;;;;;12.00;82.06;101867.63;124114;1102;103891;-76
2022/11/11 12:45:52;;;;;;;27.70;13.33;;;;;;;12.01;82.20;101872.08;124171;1102;104274;-76
2022/11/11 12:49:03;;;;;;;22.70;11.27;;;;;;;12.04;81.37;101873.95;124128;1102;104207;-76
2022/11/11 12:52:05;;;;;;;24.10;11.50;;;;;;;12.07;80.26;101867.95;124017;1102;103136;-75
2022/11/11 12:55:16;;;;;;;25.73;12.40;;;;;;;12.09;80.01;101869.84;123935;1102;104192;-75
2022/11/11 12:58:26;;;;;;;24.60;11.93;;;;;;;12.11;80.53;101857.66;123971;1102;104206;-76
2022/11/11 13:01:25;;;;;;;23.70;12.67;;;;;;;12.07;80.42;101846.91;124160;1102;109758;-77
2022/11/11 13:04:46;;;;;;;25.57;12.07;;;;;;;12.12;80.52;101869.97;124039;1102;104175;-78
2022/11/11 13:08:02;;;;;;;26.63;12.37;;;;;;;12.11;80.15;101868.19;124175;1102;103638;-77
2022/11/11 13:11:04;;;;;;;24.47;11.47;;;;;;;12.10;79.49;101879.52;124114;1102;104613;-77
2022/11/11 13:14:19;;;;;;;25.27;12.33;;;;;;;12.10;79.74;101870.73;124153;1102;104191;-77
2022/11/11 13:17:21;;;;;;;22.43;12.20;;;;;;;12.09;79.72;101871.55;123957;1102;104242;-78
2022/11/11 13:20:21;;;;;;;25.20;12.70;;;;;;;12.07;79.57;101874.11;124042;1102;103231;-78
2022/11/11 13:23:15;;;;;;;23.80;12.70;;;;;;;12.06;79.19;101880.21;124190;1102;104682;-77
2022/11/11 13:26:15;;;;;;;26.55;13.98;;;;;;;12.06;78.58;101888.11;124176;1102;101819;-78
2022/11/11 13:29:45;;;;;;;25.87;13.23;;;;;;;12.02;78.35;101878.23;124254;1102;104242;-77
2022/11/11 13:32:41;;;;;;;24.10;13.60;;;;;;;11.94;79.31;101867.31;124010;1102;110430;-78
2022/11/11 13:35:51;;;;;;;23.37;12.10;;;;;;;11.98;78.45;101878.89;124822;1102;103783;-78
2022/11/11 13:38:52;;;;;;;24.33;12.87;;;;;;;11.96;78.55;101891.07;124757;1101;104185;-77
2022/11/11 13:41:52;;;;;;;23.53;13.27;;;;;;;11.91;78.82;101887.27;124861;1101;104178;-78
2022/11/11 13:44:53;;;;;;;23.30;12.17;;;;;;;11.87;79.15;101891.45;125002;1102;102332;-77
2022/11/11 13:48:06;;;;;;;26.87;13.17;;;;;;;11.82;79.01;101887.68;124168;1102;102315;-78
2022/11/11 13:51:32;;;;;;;29.10;14.60;;;;;;;11.81;79.36;101893.75;124914;1102;102841;-79
2022/11/11 13:54:56;;;;;;;31.27;15.30;;;;;;;11.79;79.18;101896.30;124850;1102;104166;-78
2022/11/11 13:57:58;;;;;;;27.73;15.63;;;;;;;11.75;79.38;101902.23;124780;1105;104166;-79
2022/11/11 14:01:11;;;;;;;29.50;15.80;;;;;;;11.73;79.39;101902.97;124891;1102;104684;-77
2022/11/11 14:04:19;;;;;;;30.33;15.70;;;;;;;11.72;79.33;101903.78;124959;1102;109469;-77
2022/11/11 14:07:34;;;;;;;26.85;13.80;;;;;;;11.70;79.65;101908.95;124245;1102;104366;-79
2022/11/11 14:10:57;;;;;;;31.67;17.17;;;;;;;11.65;79.81;101900.81;124214;1102;104370;-76
2022/11/11 14:13:48;;;;;;;31.90;18.07;;;;;;;11.62;79.97;101900.66;124024;1102;102841;-76
2022/11/11 14:17:11;;;;;;;31.27;17.33;;;;;;;11.61;79.87;101908.45;124111;1102;102482;-78
2022/11/11 14:20:42;;;;;;;32.30;18.37;;;;;;;11.57;79.81;101909.13;123988;1102;104248;-78
2022/11/11 14:31:51;;;;;;;;;;;;;;;;;;;;;
2022/11/11 14:39:10;;;;;;;33.47;17.83;;;;;;;11.33;80.43;101934.16;127136;1102;101577;-77
2022/11/11 14:42:04;;;;;;;36.57;18.60;;;;;;;11.30;80.56;101935.72;126010;1101;104626;-78
2022/11/11 14:44:57;;;;;;;36.43;19.73;;;;;;;11.29;80.68;101933.90;125031;1101;104275;-77
2022/11/11 14:47:57;;;;;;;35.10;19.40;;;;;;;11.27;80.61;101938.17;124862;1102;104188;-77
2022/11/11 14:50:55;;;;;;;35.40;20.13;;;;;;;11.26;80.80;101937.25;124935;1102;104181;-76
2022/11/11 14:53:46;;;;;;;34.03;19.90;;;;;;;11.25;80.87;101950.30;124604;1102;104182;-77
2022/11/11 14:56:44;;;;;;;38.70;20.60;;;;;;;11.27;81.02;101948.69;124852;1102;104172;-78
2022/11/11 14:59:35;;;;;;;35.27;19.47;;;;;;;11.27;80.99;101951.31;124037;1102;104201;-76
2022/11/11 15:02:35;;;;;;;41.47;20.37;;;;;;;11.26;80.95;101953.02;124020;1102;104278;-77
2022/11/11 15:05:47;;;;;;;36.93;20.97;;;;;;;11.27;81.27;101964.45;124193;1102;103650;-76
2022/11/11 15:08:47;;;;;;;36.07;20.10;;;;;;;11.26;81.15;101970.52;123981;1102;104226;-77
2022/11/11 15:11:55;;;;;;;39.00;20.60;;;;;;;11.25;80.82;101972.25;124228;1102;102216;-75
2022/11/11 15:14:54;;;;;;;41.10;21.20;;;;;;;11.27;81.30;101974.96;124026;1102;104169;-76
2022/11/11 15:18:00;;;;;;;33.60;19.53;;;;;;;11.28;81.38;101979.37;124025;1102;103378;-77